Time;durP1;ratioP1;P1;durP2;ratioP2;P2;SDS_P1;SDS_P2;PMS_P1;PMS_P2;Temp;Humidity;BMP_temperature;BMP_pressure;BME280_temperature;BME280_humidity;BME280_pressure;Samples;Min_cycle;Max_cycle;Signal;HPM_P1;HPM_P2
2023/03/09 00:01:20;;;;;;;5.47;3.03;;;;;;;11.54;74.28;98870.50;5024808;28;20486;-73
2023/03/09 00:03:46;;;;;;;7.63;3.30;;;;;;;11.44;74.36;98867.22;5015853;28;20057;-73
2023/03/09 00:06:12;;;;;;;6.43;3.30;;;;;;;11.43;74.78;98864.69;5026032;28;20033;-73
2023/03/09 00:08:37;;;;;;;4.82;3.30;;;;;;;11.34;74.39;98846.97;5027655;28;20083;-73
2023/03/09 00:11:05;;;;;;;6.03;3.00;;;;;;;11.46;74.30;98870.56;5024581;28;20037;-72
2023/03/09 00:13:31;;;;;;;4.25;2.88;;;;;;;11.41;74.19;98856.81;5022900;28;20452;-72
2023/03/09 00:15:56;;;;;;;5.75;3.10;;;;;;;11.45;73.84;98838.53;5017531;28;20466;-74
2023/03/09 00:18:22;;;;;;;5.63;2.83;;;;;;;11.48;73.76;98857.78;5019675;28;20032;-73
2023/03/09 00:20:48;;;;;;;5.93;3.25;;;;;;;11.45;73.99;98860.81;5016250;28;20068;-72
2023/03/09 00:23:17;;;;;;;5.53;2.72;;;;;;;11.44;74.51;98855.63;5025237;28;20068;-72
2023/03/09 00:25:43;;;;;;;3.85;2.95;;;;;;;11.40;74.47;98847.09;5020761;28;20037;-73
2023/03/09 00:28:09;;;;;;;4.53;3.13;;;;;;;11.40;74.69;98849.78;5018007;28;20076;-73
2023/03/09 00:30:34;;;;;;;7.00;3.25;;;;;;;11.31;74.72;98844.63;5023112;28;20033;-73
2023/03/09 00:33:00;;;;;;;5.53;3.38;;;;;;;11.30;74.60;98835.75;5021538;28;20156;-72
2023/03/09 00:35:25;;;;;;;10.50;3.72;;;;;;;11.41;74.62;98843.41;5026013;28;20060;-72
2023/03/09 00:37:51;;;;;;;5.93;3.15;;;;;;;11.36;74.43;98843.06;5023156;28;20028;-72
2023/03/09 00:40:16;;;;;;;6.50;3.92;;;;;;;11.37;74.77;98841.25;5021848;28;20475;-72
2023/03/09 00:42:42;;;;;;;5.45;3.30;;;;;;;11.30;75.21;98835.75;5024917;28;20036;-72
2023/03/09 00:45:08;;;;;;;7.22;3.90;;;;;;;11.29;75.28;98836.75;5026755;28;20030;-73
2023/03/09 00:47:34;;;;;;;4.85;3.17;;;;;;;11.34;75.12;98837.06;5020742;28;20037;-73
2023/03/09 00:50:00;;;;;;;7.80;3.35;;;;;;;11.29;75.21;98822.50;5008732;28;20029;-73
2023/03/09 00:52:25;;;;;;;10.23;3.80;;;;;;;11.30;75.43;98826.84;5026754;28;20032;-73
2023/03/09 00:54:53;;;;;;;4.97;2.85;;;;;;;11.32;75.44;98828.34;5026234;28;20033;-73
2023/03/09 00:57:23;;;;;;;5.97;3.03;;;;;;;11.31;75.20;98818.63;5020265;28;20064;-72
2023/03/09 00:59:48;;;;;;;6.03;3.47;;;;;;;11.23;75.31;98807.09;5024949;28;20375;-72
2023/03/09 01:02:14;;;;;;;6.50;3.10;;;;;;;11.30;75.15;98824.16;5004774;28;20032;-72
2023/03/09 01:04:40;;;;;;;7.00;3.28;;;;;;;11.23;75.81;98810.59;5027036;28;20025;-72
2023/03/09 01:07:05;;;;;;;5.10;3.15;;;;;;;11.24;75.67;98823.03;5011894;28;20033;-73
2023/03/09 01:09:31;;;;;;;5.68;3.20;;;;;;;11.23;75.92;98815.97;5015492;28;20041;-73
2023/03/09 01:11:56;;;;;;;4.03;2.88;;;;;;;11.22;75.70;98816.16;5026893;28;20052;-73
2023/03/09 01:14:22;;;;;;;5.63;3.35;;;;;;;11.20;76.21;98813.66;5026637;28;20021;-73
2023/03/09 01:16:47;;;;;;;6.82;2.65;;;;;;;11.22;76.19;98808.09;5018720;28;20060;-72
2023/03/09 01:19:13;;;;;;;5.43;2.92;;;;;;;11.22;76.37;98810.78;5008719;28;20029;-73
2023/03/09 01:21:39;;;;;;;4.80;3.08;;;;;;;11.13;76.61;98801.94;5026680;28;20498;-73
2023/03/09 01:24:05;;;;;;;11.68;3.55;;;;;;;11.15;76.63;98799.94;5019899;28;20026;-72
2023/03/09 01:26:30;;;;;;;5.72;3.08;;;;;;;11.14;76.77;98797.41;5020878;28;20104;-73
2023/03/09 01:28:56;;;;;;;6.10;3.08;;;;;;;11.11;76.69;98795.06;5023928;28;20140;-73
2023/03/09 01:31:21;;;;;;;4.07;2.40;;;;;;;11.16;76.71;98804.25;5022334;28;20028;-72
2023/03/09 01:33:48;;;;;;;7.03;3.28;;;;;;;11.14;76.84;98797.41;5026351;28;20087;-72
2023/03/09 01:36:15;;;;;;;4.70;3.22;;;;;;;11.10;77.45;98799.59;5026683;28;20053;-74
2023/03/09 01:38:43;;;;;;;3.60;2.70;;;;;;;11.06;77.14;98792.91;5025271;28;20475;-73
2023/03/09 01:41:10;;;;;;;6.63;3.17;;;;;;;11.03;77.23;98793.25;5014097;28;20490;-73
2023/03/09 01:43:41;;;;;;;6.10;3.58;;;;;;;11.05;77.31;98788.56;5022112;28;20390;-74
2023/03/09 01:46:24;;;;;;;6.97;3.40;;;;;;;11.02;77.98;98794.28;5027043;28;20025;-74
2023/03/09 01:49:11;;;;;;;4.47;3.03;;;;;;;10.98;77.96;98779.56;5026273;28;20057;-72
2023/03/09 01:51:42;;;;;;;4.63;3.28;;;;;;;10.98;77.96;98782.25;5024215;28;20025;-72
2023/03/09 01:54:13;;;;;;;5.10;2.70;;;;;;;10.98;78.38;98774.19;5026311;28;20025;-72
2023/03/09 01:56:42;;;;;;;5.97;3.35;;;;;;;10.95;78.41;98787.09;5024265;28;20584;-73
2023/03/09 01:59:09;;;;;;;5.00;2.95;;;;;;;11.01;77.83;98773.84;5022515;28;20164;-73
2023/03/09 02:01:36;;;;;;;4.80;3.08;;;;;;;10.99;78.39;98775.84;5017756;28;20287;-73
2023/03/09 02:04:08;;;;;;;6.28;2.78;;;;;;;10.89;78.60;98756.47;5026557;28;20064;-73
2023/03/09 02:06:34;;;;;;;5.35;3.28;;;;;;;10.96;78.02;98772.66;5026787;28;20044;-72
2023/03/09 02:09:14;;;;;;;3.78;2.95;;;;;;;10.99;78.57;98777.69;5025842;28;20052;-72
2023/03/09 02:11:40;;;;;;;5.03;3.28;;;;;;;10.93;78.51;98765.00;5027180;28;20034;-72
2023/03/09 02:14:07;;;;;;;9.38;3.35;;;;;;;10.99;78.74;98772.31;5024970;28;20032;-73
2023/03/09 02:16:32;;;;;;;5.90;2.97;;;;;;;10.98;78.63;98773.34;5031203;28;20025;-72
2023/03/09 02:18:58;;;;;;;5.82;2.70;;;;;;;11.03;77.89;98766.44;5034638;28;20044;-72
2023/03/09 02:21:38;;;;;;;5.15;2.72;;;;;;;10.99;78.30;98757.06;5029180;28;20112;-72
2023/03/09 02:24:12;;;;;;;6.32;2.88;;;;;;;10.98;78.27;98759.94;5022999;28;20117;-73
2023/03/09 02:26:58;;;;;;;5.80;2.95;;;;;;;10.93;78.38;98749.72;5029005;28;20468;-73
2023/03/09 02:29:25;;;;;;;6.85;2.50;;;;;;;10.88;78.54;98741.38;5026956;28;20025;-72
2023/03/09 02:31:51;;;;;;;5.00;2.80;;;;;;;10.93;78.73;98743.53;5009180;28;20041;-73
2023/03/09 02:34:16;;;;;;;5.63;2.60;;;;;;;10.87;78.28;98739.69;5023134;28;20060;-73
2023/03/09 02:36:41;;;;;;;5.38;3.25;;;;;;;10.86;78.15;98724.63;5022286;28;20021;-73
2023/03/09 02:39:16;;;;;;;6.43;2.92;;;;;;;10.85;78.07;98731.00;5015942;28;20060;-73
2023/03/09 02:41:42;;;;;;;7.53;2.90;;;;;;;10.83;78.18;98730.34;5021183;28;20399;-73
2023/03/09 02:44:08;;;;;;;7.50;3.05;;;;;;;10.84;78.27;98733.88;5018019;28;20022;-72
2023/03/09 02:46:34;;;;;;;5.55;2.97;;;;;;;10.85;77.49;98731.00;4998778;28;20116;-73
2023/03/09 02:48:59;;;;;;;3.85;2.60;;;;;;;10.75;78.04;98725.03;5014996;28;20116;-67
2023/03/09 02:51:24;;;;;;;5.32;2.80;;;;;;;10.66;78.04;98725.22;5013214;28;20037;-67
2023/03/09 02:53:50;;;;;;;5.53;2.83;;;;;;;10.66;78.47;98741.31;5013588;28;20048;-67
2023/03/09 02:56:15;;;;;;;5.45;3.20;;;;;;;10.54;78.46;98724.75;5006444;28;20037;-67
2023/03/09 02:58:41;;;;;;;6.95;2.67;;;;;;;10.46;78.66;98718.59;5023953;28;20096;-66
2023/03/09 03:01:06;;;;;;;6.60;3.33;;;;;;;10.46;78.81;98727.47;5005695;28;20387;-66
2023/03/09 03:03:32;;;;;;;4.40;2.53;;;;;;;10.42;79.23;98738.72;5029217;28;20029;-68
2023/03/09 03:06:00;;;;;;;4.22;3.10;;;;;;;10.40;79.68;98746.94;5023587;28;20018;-66
2023/03/09 03:08:25;;;;;;;5.90;3.22;;;;;;;10.26;80.35;98738.75;5022022;28;20030;-67
2023/03/09 03:10:51;;;;;;;5.53;3.35;;;;;;;10.21;80.29;98735.75;5016973;28;20499;-67
2023/03/09 03:13:16;;;;;;;6.50;3.33;;;;;;;10.12;80.81;98734.09;5012354;28;20101;-67
2023/03/09 03:15:42;;;;;;;6.78;3.47;;;;;;;10.11;81.24;98738.63;5024695;28;20037;-67
2023/03/09 03:18:08;;;;;;;6.25;3.58;;;;;;;9.99;81.10;98709.66;4998402;28;20456;-67
2023/03/09 03:20:33;;;;;;;4.05;3.38;;;;;;;10.04;81.73;98720.69;5010221;28;20034;-67
2023/03/09 03:22:59;;;;;;;5.97;3.83;;;;;;;9.98;81.99;98719.53;5017993;28;20038;-67
2023/03/09 03:25:24;;;;;;;5.05;3.17;;;;;;;9.98;82.27;98721.34;4996034;28;20058;-67
2023/03/09 03:27:50;;;;;;;7.63;2.97;;;;;;;9.96;82.38;98721.53;5015191;28;20025;-68
2023/03/09 03:30:16;;;;;;;7.18;3.60;;;;;;;9.95;82.58;98730.56;5005590;28;20124;-68
2023/03/09 03:32:41;;;;;;;9.50;3.85;;;;;;;9.96;82.85;98745.63;5004861;28;20472;-66
2023/03/09 03:35:07;;;;;;;4.03;3.28;;;;;;;9.90;82.77;98727.56;5028114;28;20041;-67
2023/03/09 03:37:33;;;;;;;5.35;3.13;;;;;;;9.92;82.84;98736.25;5013613;28;20030;-66
2023/03/09 03:39:58;;;;;;;5.28;3.15;;;;;;;9.85;82.86;98729.06;5010956;28;20037;-66
2023/03/09 03:42:24;;;;;;;6.57;3.45;;;;;;;9.85;83.28;98745.13;5020110;28;20116;-67
2023/03/09 03:44:49;;;;;;;4.38;3.45;;;;;;;9.83;83.18;98742.63;5027136;28;20049;-67
2023/03/09 03:47:15;;;;;;;6.10;3.30;;;;;;;9.78;84.06;98728.06;5027956;28;20033;-67
2023/03/09 03:49:40;;;;;;;6.55;3.47;;;;;;;9.85;83.79;98740.63;5009649;28;20032;-67
2023/03/09 03:52:07;;;;;;;5.95;2.95;;;;;;;9.87;83.90;98743.13;5017120;28;20112;-67
2023/03/09 03:54:33;;;;;;;5.35;3.30;;;;;;;9.85;84.23;98739.78;5024740;28;20490;-67
2023/03/09 03:56:58;;;;;;;6.40;3.22;;;;;;;9.85;84.41;98743.31;5007083;28;20049;-68
2023/03/09 03:59:24;;;;;;;8.80;4.10;;;;;;;9.61;84.97;98715.72;5017636;28;20028;-67
2023/03/09 04:01:49;;;;;;;5.47;3.72;;;;;;;9.76;85.24;98749.66;5016116;28;20036;-67
2023/03/09 04:04:15;;;;;;;6.38;3.00;;;;;;;9.69;85.39;98740.63;5027807;28;20106;-68
2023/03/09 04:06:40;;;;;;;6.53;3.20;;;;;;;9.75;85.83;98756.03;5025492;28;20025;-66
2023/03/09 04:09:06;;;;;;;5.18;3.20;;;;;;;9.71;85.78;98746.66;5003823;28;20025;-67
2023/03/09 04:11:31;;;;;;;6.72;3.15;;;;;;;9.68;86.07;98744.31;5027456;28;20121;-67
2023/03/09 04:13:57;;;;;;;5.25;3.63;;;;;;;9.59;86.25;98739.13;5015287;28;20032;-68
2023/03/09 04:16:23;;;;;;;6.45;3.47;;;;;;;9.69;86.44;98756.69;5023285;28;20041;-67
2023/03/09 04:18:49;;;;;;;6.47;3.20;;;;;;;9.67;86.59;98750.66;5027261;28;20025;-67
2023/03/09 04:21:14;;;;;;;4.97;3.22;;;;;;;9.65;86.79;98744.66;5021779;28;20554;-66
2023/03/09 04:23:41;;;;;;;7.00;3.22;;;;;;;9.65;86.84;98730.44;5026965;28;20037;-67
2023/03/09 04:26:06;;;;;;;5.13;3.10;;;;;;;9.80;86.57;98737.59;5008250;28;20116;-67
2023/03/09 04:28:32;;;;;;;9.45;3.70;;;;;;;9.69;86.77;98729.94;5027228;28;20116;-67
2023/03/09 04:30:57;;;;;;;8.52;3.60;;;;;;;9.74;86.75;98743.63;5022465;28;20123;-67
2023/03/09 04:33:23;;;;;;;4.45;2.90;;;;;;;9.69;86.37;98729.06;4998738;28;20410;-67
2023/03/09 04:35:49;;;;;;;7.28;3.58;;;;;;;9.76;86.77;98741.63;5026228;28;20459;-66
2023/03/09 04:38:15;;;;;;;6.38;3.10;;;;;;;9.66;86.82;98734.75;5028126;28;20053;-66
2023/03/09 04:40:40;;;;;;;4.57;2.90;;;;;;;9.71;86.62;98738.63;5021866;28;20395;-67
2023/03/09 04:43:06;;;;;;;5.10;3.38;;;;;;;9.55;86.62;98703.00;5006765;28;20029;-66
2023/03/09 04:45:32;;;;;;;6.03;3.20;;;;;;;9.60;87.26;98711.34;5021393;28;20075;-66
2023/03/09 04:47:57;;;;;;;7.47;3.83;;;;;;;9.59;87.04;98701.66;5015815;28;20045;-68
2023/03/09 04:50:23;;;;;;;5.30;3.38;;;;;;;9.74;87.20;98722.22;5021961;28;20033;-68
2023/03/09 04:52:49;;;;;;;5.40;3.08;;;;;;;9.65;87.45;98707.19;5021333;28;20114;-67
2023/03/09 04:55:16;;;;;;;7.43;3.38;;;;;;;9.69;88.01;98723.72;5007834;28;20924;-67
2023/03/09 04:57:41;;;;;;;5.20;3.63;;;;;;;9.66;87.36;98724.91;5022238;28;20052;-67
2023/03/09 05:00:10;;;;;;;5.07;3.28;;;;;;;9.72;87.74;98732.28;5000551;28;20021;-67
2023/03/09 05:02:37;;;;;;;6.32;3.78;;;;;;;9.51;88.03;98686.44;5021413;28;20168;-67
2023/03/09 05:05:02;;;;;;;7.68;3.45;;;;;;;9.56;87.60;98694.81;5020543;28;20021;-67
2023/03/09 05:07:28;;;;;;;8.15;3.53;;;;;;;9.56;87.86;98694.81;5026503;28;20399;-66
2023/03/09 05:09:53;;;;;;;7.40;3.50;;;;;;;9.49;87.85;98685.78;5015144;28;20097;-66
2023/03/09 05:12:19;;;;;;;7.63;3.70;;;;;;;9.61;88.26;98705.00;5017323;28;20025;-66
2023/03/09 05:14:44;;;;;;;7.15;3.75;;;;;;;9.65;88.26;98709.00;5025406;28;20021;-65
2023/03/09 05:17:09;;;;;;;8.23;4.03;;;;;;;9.53;88.42;98675.56;5023135;28;21803;-66
2023/03/09 05:19:37;;;;;;;7.28;3.80;;;;;;;9.56;88.62;98689.44;5026275;28;20484;-72
2023/03/09 05:22:03;;;;;;;8.85;3.78;;;;;;;9.69;88.52;98707.66;5022440;28;20032;-71
2023/03/09 05:24:29;;;;;;;7.00;3.47;;;;;;;9.63;88.54;98702.97;5027999;28;20022;-72
2023/03/09 05:26:54;;;;;;;8.80;4.03;;;;;;;9.70;88.91;98707.50;5027727;28;20522;-73
2023/03/09 05:29:20;;;;;;;6.10;3.58;;;;;;;9.55;89.04;98679.75;5024726;28;20034;-73
2023/03/09 05:31:45;;;;;;;9.20;4.15;;;;;;;9.69;88.69;98710.34;4998954;28;20029;-73
2023/03/09 05:34:11;;;;;;;5.50;3.40;;;;;;;9.70;88.69;98702.16;5020965;28;20111;-73
2023/03/09 05:36:36;;;;;;;4.97;3.30;;;;;;;9.63;89.06;98693.13;5006162;28;20029;-73
2023/03/09 05:39:02;;;;;;;5.55;3.65;;;;;;;9.65;89.21;98701.00;5004646;28;20029;-72
2023/03/09 05:41:27;;;;;;;7.85;4.15;;;;;;;9.73;89.05;98704.50;5001031;28;20383;-74
2023/03/09 05:43:53;;;;;;;6.95;3.80;;;;;;;9.71;89.33;98714.56;4999551;28;20035;-73
2023/03/09 05:46:18;;;;;;;6.18;4.07;;;;;;;9.72;89.67;98713.53;5003898;28;20030;-73
2023/03/09 05:48:46;;;;;;;6.13;3.22;;;;;;;9.79;89.39;98717.22;5007738;28;20046;-73
2023/03/09 05:51:12;;;;;;;6.95;3.97;;;;;;;9.77;89.37;98715.72;5009814;28;20438;-73
2023/03/09 05:53:37;;;;;;;8.43;4.47;;;;;;;9.78;89.38;98712.88;5008120;28;20022;-72
2023/03/09 05:56:05;;;;;;;7.88;4.32;;;;;;;9.81;89.27;98723.25;5011920;28;20072;-72
2023/03/09 05:58:31;;;;;;;10.82;4.55;;;;;;;9.73;89.19;98715.19;5004243;28;20472;-73
2023/03/09 06:00:56;;;;;;;7.70;4.15;;;;;;;9.80;88.99;98716.19;5008398;28;20084;-66
2023/03/09 06:03:22;;;;;;;6.50;3.70;;;;;;;9.74;89.70;98708.00;5008746;28;20030;-67
2023/03/09 06:05:48;;;;;;;8.57;4.10;;;;;;;9.88;89.21;98718.03;5022086;28;20498;-67
2023/03/09 06:08:14;;;;;;;7.10;3.80;;;;;;;9.86;89.46;98715.50;5006985;28;20027;-67
2023/03/09 06:10:40;;;;;;;5.35;3.60;;;;;;;9.98;89.42;98730.25;5006603;28;20033;-67
2023/03/09 06:13:07;;;;;;;7.65;3.83;;;;;;;10.00;89.44;98725.53;5009208;28;20100;-66
2023/03/09 06:15:32;;;;;;;9.45;3.83;;;;;;;9.90;89.26;98702.63;5019273;28;20395;-67
2023/03/09 06:17:58;;;;;;;6.03;4.32;;;;;;;10.02;88.96;98723.53;5008980;28;20026;-67
2023/03/09 06:20:23;;;;;;;6.70;3.72;;;;;;;10.16;88.65;98733.56;5024653;28;20061;-68
2023/03/09 06:22:49;;;;;;;5.88;3.67;;;;;;;10.26;88.74;98742.28;5009577;28;20036;-73
2023/03/09 06:25:14;;;;;;;7.30;4.10;;;;;;;10.33;88.25;98740.59;5011484;28;20216;-73
2023/03/09 06:27:41;;;;;;;9.30;4.10;;;;;;;10.32;88.55;98736.22;5005421;28;20042;-73
2023/03/09 06:30:07;;;;;;;6.03;3.28;;;;;;;10.42;87.64;98742.22;5010381;28;20049;-73
2023/03/09 06:32:34;;;;;;;6.45;3.88;;;;;;;10.53;87.22;98741.00;5011515;28;20038;-74
2023/03/09 06:35:00;;;;;;;6.05;3.33;;;;;;;10.63;86.41;98734.44;5028759;28;20033;-73
2023/03/09 06:37:26;;;;;;;5.10;3.22;;;;;;;10.68;86.48;98739.28;5027868;28;20040;-74
2023/03/09 06:39:51;;;;;;;7.57;3.83;;;;;;;10.84;86.55;98741.91;5018549;28;20049;-74
2023/03/09 06:42:17;;;;;;;9.15;3.72;;;;;;;10.94;86.10;98737.16;5029159;28;20026;-74
2023/03/09 06:44:42;;;;;;;6.10;3.53;;;;;;;11.05;85.58;98729.56;5029826;28;20033;-73
2023/03/09 06:47:09;;;;;;;7.47;3.58;;;;;;;11.15;85.17;98723.94;5029561;28;20036;-74
2023/03/09 06:49:34;;;;;;;8.50;3.60;;;;;;;11.18;84.49;98726.28;5022772;28;20041;-74
2023/03/09 06:52:00;;;;;;;6.65;3.55;;;;;;;11.30;84.20;98743.66;5022013;28;20144;-74
2023/03/09 06:54:26;;;;;;;5.25;3.47;;;;;;;11.37;84.10;98739.25;5027011;28;20032;-74
2023/03/09 06:56:52;;;;;;;5.10;3.22;;;;;;;11.40;83.55;98752.31;5030105;28;20057;-74
2023/03/09 06:59:17;;;;;;;9.27;3.55;;;;;;;11.40;83.81;98745.09;5028071;28;20056;-74
2023/03/09 07:01:43;;;;;;;9.15;3.30;;;;;;;11.49;83.87;98741.31;5021882;28;20033;-73
2023/03/09 07:04:08;;;;;;;9.55;3.10;;;;;;;11.57;83.52;98728.88;5023465;28;20021;-73
2023/03/09 07:06:34;;;;;;;5.82;3.08;;;;;;;11.68;82.48;98733.84;5027829;28;20137;-73
2023/03/09 07:08:59;;;;;;;7.07;3.25;;;;;;;11.61;82.81;98720.28;5022741;28;20072;-74
2023/03/09 07:11:25;;;;;;;7.22;3.20;;;;;;;11.61;82.87;98733.72;5029674;28;20040;-74
2023/03/09 07:13:50;;;;;;;6.30;3.08;;;;;;;11.66;83.08;98728.66;5027297;28;20037;-73
2023/03/09 07:16:16;;;;;;;5.43;3.25;;;;;;;11.78;82.35;98737.13;5023464;28;20025;-75
2023/03/09 07:18:41;;;;;;;7.43;2.78;;;;;;;11.73;82.76;98734.16;5023083;28;20038;-74
2023/03/09 07:21:08;;;;;;;6.65;2.90;;;;;;;11.80;83.08;98740.47;5029071;28;20033;-74
2023/03/09 07:23:34;;;;;;;6.97;3.40;;;;;;;11.81;82.70;98748.34;5027865;28;20475;-73
2023/03/09 07:26:04;;;;;;;11.18;3.10;;;;;;;11.80;83.01;98745.84;5028977;28;20040;-74
2023/03/09 07:28:30;;;;;;;8.90;3.30;;;;;;;11.84;82.91;98757.88;5029106;28;20033;-74
2023/03/09 07:30:56;;;;;;;7.47;2.95;;;;;;;11.75;83.28;98748.22;5016366;28;20059;-74
2023/03/09 07:33:21;;;;;;;3.45;2.65;;;;;;;11.79;83.36;98749.53;5000572;28;20148;-74
2023/03/09 07:35:47;;;;;;;6.65;3.22;;;;;;;11.81;83.46;98766.31;5021089;28;20033;-74
2023/03/09 07:38:12;;;;;;;9.02;3.50;;;;;;;11.85;83.87;98768.44;5024089;28;20029;-73
2023/03/09 07:40:38;;;;;;;7.03;3.45;;;;;;;11.87;83.18;98760.22;5016196;28;20037;-72
2023/03/09 07:43:04;;;;;;;7.90;3.10;;;;;;;11.92;83.75;98780.13;5024258;28;20017;-74
2023/03/09 07:45:29;;;;;;;5.68;2.60;;;;;;;11.91;83.64;98773.09;5029599;28;20032;-72
2023/03/09 07:47:55;;;;;;;5.97;2.95;;;;;;;11.95;83.43;98776.25;5012510;28;20499;-73
2023/03/09 07:50:21;;;;;;;6.13;2.53;;;;;;;11.97;83.95;98784.97;5028461;28;20031;-74
2023/03/09 07:52:47;;;;;;;6.15;3.13;;;;;;;12.05;83.31;98790.28;5023758;28;20033;-73
2023/03/09 07:55:14;;;;;;;7.93;3.40;;;;;;;11.99;83.42;98778.41;5001772;28;20025;-74
2023/03/09 07:57:40;;;;;;;6.10;2.80;;;;;;;12.03;83.79;98782.38;5016528;28;20025;-67
2023/03/09 08:00:12;;;;;;;7.00;2.92;;;;;;;12.02;83.36;98785.28;5025003;28;20057;-67
2023/03/09 08:02:39;;;;;;;6.22;3.13;;;;;;;12.03;83.11;98777.00;5007373;28;20506;-68
2023/03/09 08:05:07;;;;;;;5.80;3.10;;;;;;;11.78;82.54;98737.97;5027162;28;20479;-67
2023/03/09 08:07:32;;;;;;;6.30;3.60;;;;;;;11.99;83.02;98764.97;4998905;28;20033;-68
2023/03/09 08:09:57;;;;;;;7.10;3.70;;;;;;;12.13;82.95;98791.06;5021788;28;20038;-67
2023/03/09 08:12:23;;;;;;;7.55;4.28;;;;;;;12.12;83.20;98793.94;5025332;28;20033;-67
2023/03/09 08:14:48;;;;;;;7.00;4.55;;;;;;;12.09;82.57;98780.84;5018868;28;20506;-67
2023/03/09 08:17:14;;;;;;;8.15;4.03;;;;;;;12.26;81.61;98791.28;5004310;28;20030;-67
2023/03/09 08:19:40;;;;;;;10.20;3.97;;;;;;;12.23;81.58;98802.38;5026923;28;20026;-68
2023/03/09 08:22:06;;;;;;;8.25;4.85;;;;;;;12.19;81.27;98787.63;5025388;28;20032;-68
2023/03/09 08:24:31;;;;;;;7.32;3.53;;;;;;;12.28;81.15;98801.84;5024674;28;20039;-67
2023/03/09 08:26:58;;;;;;;8.50;3.65;;;;;;;12.26;81.82;98803.88;5023199;28;20033;-68
2023/03/09 08:29:23;;;;;;;6.22;2.72;;;;;;;12.19;81.58;98798.38;5026646;28;20037;-68
2023/03/09 08:31:49;;;;;;;8.18;3.20;;;;;;;12.16;82.09;98792.53;5022608;28;20040;-67
2023/03/09 08:34:18;;;;;;;7.43;3.50;;;;;;;12.29;82.11;98801.63;5025047;28;20103;-68
2023/03/09 08:36:43;;;;;;;7.40;3.63;;;;;;;12.24;81.21;98789.75;5004759;28;20124;-68
2023/03/09 08:39:09;;;;;;;7.05;3.00;;;;;;;12.31;81.62;98794.22;5024551;28;20105;-67
2023/03/09 08:41:34;;;;;;;5.47;3.50;;;;;;;12.32;81.66;98782.44;5007966;28;20063;-68
2023/03/09 08:44:00;;;;;;;9.85;5.93;;;;;;;12.54;80.93;98805.75;5007580;28;20201;-68
2023/03/09 08:46:25;;;;;;;9.90;3.67;;;;;;;12.58;80.62;98808.94;5026840;28;20041;-69
2023/03/09 08:48:51;;;;;;;8.57;3.35;;;;;;;12.59;79.68;98783.69;5008684;28;20053;-69
2023/03/09 08:51:17;;;;;;;6.78;2.90;;;;;;;12.64;79.55;98797.44;5026489;28;20040;-66
2023/03/09 08:53:43;;;;;;;5.78;2.63;;;;;;;12.67;79.37;98794.38;5026504;28;20026;-67
2023/03/09 08:56:10;;;;;;;4.75;2.70;;;;;;;12.82;77.76;98797.88;5008509;28;20029;-67
2023/03/09 08:58:37;;;;;;;7.30;2.80;;;;;;;12.77;78.28;98798.44;5025985;28;20033;-67
2023/03/09 09:01:10;;;;;;;10.10;2.92;;;;;;;12.59;78.83;98773.78;5007752;28;20026;-68
2023/03/09 09:03:38;;;;;;;4.40;2.42;;;;;;;12.82;79.03;98798.75;5020774;28;20079;-68
2023/03/09 09:06:15;;;;;;;8.77;2.30;;;;;;;12.71;78.61;98782.22;5025715;28;20037;-66
2023/03/09 09:08:42;;;;;;;6.28;2.42;;;;;;;12.81;78.72;98798.91;5024106;28;20033;-68
2023/03/09 09:11:10;;;;;;;8.13;3.00;;;;;;;12.92;77.23;98780.44;5016464;28;20033;-68
2023/03/09 09:13:39;;;;;;;7.72;2.63;;;;;;;13.08;78.18;98809.03;5008097;28;20168;-68
2023/03/09 09:16:06;;;;;;;5.22;2.97;;;;;;;13.16;78.51;98803.56;5022893;28;20488;-68
2023/03/09 09:18:33;;;;;;;8.55;3.45;;;;;;;13.59;76.32;98800.78;5024558;28;20022;-68
2023/03/09 09:21:02;;;;;;;10.35;4.18;;;;;;;13.87;74.65;98792.78;5011957;28;20079;-67
2023/03/09 09:23:28;;;;;;;11.80;3.38;;;;;;;14.35;71.48;98789.28;5001223;28;20029;-68
2023/03/09 09:25:56;;;;;;;6.80;2.83;;;;;;;14.97;68.81;98776.63;5020402;28;20045;-67
2023/03/09 09:28:23;;;;;;;7.03;3.08;;;;;;;15.95;65.83;98776.97;5028634;28;20034;-68
2023/03/09 09:30:56;;;;;;;9.60;2.65;;;;;;;17.48;60.04;98789.91;5029950;28;20045;-68
2023/03/09 09:33:23;;;;;;;5.63;2.20;;;;;;;19.06;54.64;98775.69;5012522;28;20059;-67
2023/03/09 09:35:58;;;;;;;6.18;2.50;;;;;;;20.39;50.10;98779.97;5027574;28;20033;-68
2023/03/09 09:38:25;;;;;;;8.05;2.17;;;;;;;21.16;47.44;98775.03;5028417;28;20036;-68
2023/03/09 09:40:53;;;;;;;2.33;1.40;;;;;;;21.86;45.38;98756.59;5027290;28;20491;-68
2023/03/09 09:43:19;;;;;;;5.30;2.00;;;;;;;21.95;45.80;98764.13;5000355;28;20029;-68
2023/03/09 09:45:45;;;;;;;4.50;1.88;;;;;;;22.61;43.79;98770.75;5008774;28;20403;-67
2023/03/09 09:48:20;;;;;;;6.07;2.13;;;;;;;22.81;42.66;98780.09;5029776;28;20034;-68
2023/03/09 09:50:54;;;;;;;8.02;1.90;;;;;;;21.57;44.98;98774.81;5012282;28;20038;-67
2023/03/09 09:53:57;;;;;;;4.00;1.48;;;;;;;20.47;46.83;98771.47;5030141;28;20041;-67
2023/03/09 09:56:33;;;;;;;3.58;1.65;;;;;;;19.75;48.52;98772.56;5009381;28;21980;-67
2023/03/09 09:59:05;;;;;;;6.28;2.08;;;;;;;18.75;51.32;98781.25;5015576;28;20025;-68
2023/03/09 10:02:01;;;;;;;3.42;1.73;;;;;;;18.26;52.85;98789.41;5011083;28;20040;-69
2023/03/09 10:04:33;;;;;;;7.25;2.42;;;;;;;17.99;54.01;98793.34;5023269;28;20029;-69
2023/03/09 10:07:05;;;;;;;5.00;2.28;;;;;;;17.65;54.91;98772.91;5024410;28;20088;-76
2023/03/09 10:09:33;;;;;;;5.10;2.03;;;;;;;17.31;56.12;98786.78;5032211;28;20123;-74
2023/03/09 10:12:06;;;;;;;4.90;1.90;;;;;;;16.99;57.48;98795.06;5031521;28;20029;-73
2023/03/09 10:14:41;;;;;;;7.47;2.28;;;;;;;16.34;58.37;98728.28;5006354;28;20120;-68
2023/03/09 10:17:16;;;;;;;4.22;1.88;;;;;;;16.50;59.69;98786.56;5023362;28;20087;-69
2023/03/09 10:19:42;;;;;;;3.20;1.52;;;;;;;16.31;60.36;98782.81;5006516;28;20080;-66
2023/03/09 10:22:14;;;;;;;4.15;1.67;;;;;;;16.22;61.00;98775.94;5023822;28;20475;-68
2023/03/09 10:24:44;;;;;;;4.63;2.17;;;;;;;16.11;61.30;98773.00;5027888;28;20076;-67
2023/03/09 10:27:23;;;;;;;6.22;2.30;;;;;;;16.10;61.83;98777.59;5008935;28;20068;-68
2023/03/09 10:30:09;;;;;;;7.15;2.13;;;;;;;16.04;63.20;98781.13;5026010;28;20033;-68
2023/03/09 10:32:40;;;;;;;5.75;2.28;;;;;;;15.94;65.04;98792.34;5027824;28;20468;-68
2023/03/09 10:35:18;;;;;;;8.35;2.40;;;;;;;15.76;66.50;98796.69;4999613;28;20033;-68
2023/03/09 10:37:46;;;;;;;8.20;2.05;;;;;;;15.67;68.25;98787.09;5020835;28;20037;-69
2023/03/09 10:40:24;;;;;;;4.20;2.13;;;;;;;15.49;67.65;98762.53;5017754;28;20033;-68
2023/03/09 10:42:50;;;;;;;6.53;2.38;;;;;;;15.38;68.99;98793.66;5018452;28;20029;-67
2023/03/09 10:45:23;;;;;;;3.35;2.15;;;;;;;15.28;70.18;98793.16;5013577;28;20030;-69
2023/03/09 10:47:54;;;;;;;4.63;2.10;;;;;;;15.16;71.66;98786.66;5000786;28;20128;-68
2023/03/09 10:50:22;;;;;;;4.60;1.95;;;;;;;15.17;72.11;98792.91;4996850;28;20057;-67
2023/03/09 10:52:51;;;;;;;6.63;2.10;;;;;;;14.85;73.65;98742.28;5014536;28;20034;-69
2023/03/09 10:55:25;;;;;;;5.53;1.83;;;;;;;14.98;74.46;98761.25;5017257;28;20032;-69
2023/03/09 10:58:17;;;;;;;5.90;2.00;;;;;;;15.15;75.36;98771.50;5005451;28;20071;-69
2023/03/09 11:00:57;;;;;;;5.97;1.98;;;;;;;15.18;75.20;98781.06;5020307;28;20041;-75
2023/03/09 11:03:29;;;;;;;4.75;2.10;;;;;;;15.28;74.96;98781.53;5019424;28;20029;-73
2023/03/09 11:06:09;;;;;;;6.28;2.47;;;;;;;15.37;74.86;98778.50;5016311;28;20049;-68
2023/03/09 11:08:35;;;;;;;9.77;2.35;;;;;;;15.63;73.50;98786.69;5016344;28;20030;-68
2023/03/09 11:11:15;;;;;;;5.75;2.42;;;;;;;15.82;72.47;98771.53;5000329;28;20080;-69
2023/03/09 11:13:44;;;;;;;5.85;2.60;;;;;;;15.83;72.03;98763.22;5016302;28;20028;-68
2023/03/09 11:16:28;;;;;;;5.75;2.70;;;;;;;16.02;70.55;98780.50;5003384;28;20029;-67
2023/03/09 11:19:17;;;;;;;5.43;2.53;;;;;;;15.99;69.57;98777.38;5018385;28;20041;-67
2023/03/09 11:22:10;;;;;;;3.78;1.92;;;;;;;16.20;69.27;98788.00;5006090;28;20534;-71
2023/03/09 11:24:42;;;;;;;4.57;2.25;;;;;;;16.20;69.09;98785.28;4997369;28;20052;-69
2023/03/09 11:27:25;;;;;;;8.77;2.28;;;;;;;16.25;69.01;98777.41;4996256;28;20056;-68
2023/03/09 11:29:54;;;;;;;4.53;1.92;;;;;;;16.35;67.50;98772.41;5020571;28;20403;-69
2023/03/09 11:32:19;;;;;;;5.25;2.10;;;;;;;16.22;67.50;98757.00;5017707;28;20095;-68
2023/03/09 11:34:45;;;;;;;5.00;2.28;;;;;;;16.43;67.32;98773.06;5000906;28;20088;-69
2023/03/09 11:37:26;;;;;;;7.57;2.42;;;;;;;16.56;66.20;98753.25;5027035;28;20390;-67